Time;durP1;ratioP1;P1;durP2;ratioP2;P2;SDS_P1;SDS_P2;PMS_P1;PMS_P2;Temp;Humidity;BMP_temperature;BMP_pressure;BME280_temperature;BME280_humidity;BME280_pressure;Samples;Min_cycle;Max_cycle;Signal;HPM_P1;HPM_P2
2021/05/13 00:04:51;;;;;;;4.15;1.67;;;9.00;99.90;;;;;;10273156;28;20250;-48
2021/05/13 00:10:16;;;;;;;3.53;1.83;;;8.90;99.90;;;;;;10260785;28;20550;-49
2021/05/13 00:15:41;;;;;;;2.78;1.40;;;8.90;99.90;;;;;;10267551;28;20134;-49
2021/05/13 00:21:02;;;;;;;3.67;1.27;;;9.00;99.90;;;;;;10269754;28;20490;-49
2021/05/13 00:26:39;;;;;;;2.92;1.15;;;8.90;99.90;;;;;;10268949;28;20201;-49
2021/05/13 00:32:00;;;;;;;2.72;1.23;;;8.90;99.90;;;;;;10267071;28;20034;-49
2021/05/13 00:37:21;;;;;;;3.90;1.00;;;8.80;99.90;;;;;;10267701;28;20417;-49
2021/05/13 00:42:42;;;;;;;9.30;1.75;;;8.80;99.90;;;;;;10265768;28;20101;-49
2021/05/13 00:48:05;;;;;;;2.75;1.33;;;8.80;99.90;;;;;;10258122;28;20089;-48
2021/05/13 00:53:27;;;;;;;3.10;1.33;;;8.80;99.90;;;;;;10268129;28;20042;-48
2021/05/13 00:58:50;;;;;;;3.42;1.25;;;8.70;99.90;;;;;;10266166;28;20343;-48
2021/05/13 01:04:12;;;;;;;4.05;2.10;;;8.60;99.90;;;;;;10271827;28;20092;-48
2021/05/13 01:09:33;;;;;;;13.07;2.35;;;8.60;99.90;;;;;;10268884;28;20109;-48
2021/05/13 01:14:55;;;;;;;3.05;1.42;;;8.50;99.90;;;;;;10278853;28;20073;-48
2021/05/13 01:20:16;;;;;;;6.18;1.35;;;8.50;99.90;;;;;;10277511;28;20541;-48
2021/05/13 01:25:53;;;;;;;5.00;1.63;;;8.50;99.90;;;;;;10281047;28;20513;-48
2021/05/13 01:31:17;;;;;;;3.72;1.35;;;8.40;99.90;;;;;;10275347;28;20146;-48
2021/05/13 01:36:39;;;;;;;4.60;1.30;;;8.40;99.90;;;;;;10278541;28;20061;-48
2021/05/13 01:42:00;;;;;;;3.63;1.85;;;8.40;99.90;;;;;;10275845;28;20089;-48
2021/05/13 01:47:21;;;;;;;3.42;1.23;;;8.30;99.90;;;;;;10278704;28;20047;-48
2021/05/13 01:52:42;;;;;;;2.15;1.20;;;8.30;99.90;;;;;;10280901;28;20076;-48
2021/05/13 01:58:03;;;;;;;3.80;1.98;;;8.20;99.90;;;;;;10275597;28;20120;-48
2021/05/13 02:03:25;;;;;;;6.28;2.88;;;8.20;99.90;;;;;;10277103;28;20038;-48
2021/05/13 02:08:46;;;;;;;3.25;1.33;;;8.10;99.90;;;;;;10282181;28;20047;-48
2021/05/13 02:14:07;;;;;;;3.75;1.45;;;8.10;99.90;;;;;;10282057;28;20049;-48
2021/05/13 02:19:28;;;;;;;4.68;2.17;;;8.10;99.90;;;;;;10276672;28;20084;-48
2021/05/13 02:24:49;;;;;;;3.97;1.60;;;8.00;99.90;;;;;;10270457;28;20050;-48
2021/05/13 02:30:13;;;;;;;5.68;1.77;;;8.00;99.90;;;;;;10269801;28;20047;-48
2021/05/13 02:35:34;;;;;;;3.97;1.58;;;7.90;99.90;;;;;;10263062;28;20055;-48
2021/05/13 02:40:55;;;;;;;2.25;1.20;;;7.80;99.90;;;;;;10248546;28;20047;-48
2021/05/13 02:46:16;;;;;;;5.50;1.83;;;7.80;99.90;;;;;;10274545;28;20050;-48
2021/05/13 02:51:37;;;;;;;6.15;2.00;;;7.80;99.90;;;;;;10272178;28;20393;-48
2021/05/13 02:56:58;;;;;;;5.45;1.92;;;7.80;99.90;;;;;;10274491;28;20061;-48
2021/05/13 03:02:19;;;;;;;4.80;2.20;;;7.80;99.90;;;;;;10271606;28;20573;-48
2021/05/13 03:07:52;;;;;;;5.45;2.17;;;7.80;99.90;;;;;;10270316;28;20050;-48
2021/05/13 03:13:21;;;;;;;7.75;2.03;;;7.80;99.90;;;;;;10267158;28;20570;-48
2021/05/13 03:18:45;;;;;;;9.23;2.90;;;7.80;99.90;;;;;;10268791;28;20050;-48
2021/05/13 03:24:15;;;;;;;5.40;2.50;;;7.80;99.90;;;;;;10270454;28;20453;-48
2021/05/13 03:29:37;;;;;;;4.43;1.95;;;7.80;99.90;;;;;;10271545;28;20061;-48
2021/05/13 03:34:58;;;;;;;4.65;2.40;;;7.80;99.90;;;;;;10275184;28;20050;-48
2021/05/13 03:40:19;;;;;;;5.07;2.10;;;7.80;99.90;;;;;;10265666;28;20051;-48
2021/05/13 03:45:40;;;;;;;3.55;1.95;;;7.70;99.90;;;;;;10263427;28;20046;-48
2021/05/13 03:51:01;;;;;;;4.35;2.10;;;7.70;99.90;;;;;;10270353;28;20047;-48
2021/05/13 03:56:22;;;;;;;3.83;2.00;;;7.60;99.90;;;;;;10275196;28;20057;-48
2021/05/13 04:07:05;;;;;;;4.68;2.38;;;7.60;99.90;;;;;;10274079;28;20548;-48
2021/05/13 04:12:26;;;;;;;4.22;1.70;;;7.60;99.90;;;;;;10272827;28;20065;-48
2021/05/13 04:17:47;;;;;;;4.60;2.38;;;7.70;99.90;;;;;;10262417;28;20082;-48
2021/05/13 04:23:09;;;;;;;4.63;1.50;;;7.90;99.90;;;;;;10267161;28;20501;-48
2021/05/13 04:28:30;;;;;;;5.60;1.38;;;7.90;99.90;;;;;;10260468;28;20073;-48
2021/05/13 04:33:50;;;;;;;4.72;1.90;;;8.00;99.90;;;;;;10270090;28;20053;-48
2021/05/13 04:39:11;;;;;;;6.57;2.00;;;8.00;99.90;;;;;;10270439;28;20051;-48
2021/05/13 04:44:34;;;;;;;3.72;1.70;;;8.10;99.90;;;;;;10264801;28;20102;-48
2021/05/13 04:49:55;;;;;;;4.80;1.73;;;8.20;99.90;;;;;;10272164;28;20047;-48
2021/05/13 04:55:16;;;;;;;4.35;2.13;;;8.40;99.90;;;;;;10277074;28;20078;-48
2021/05/13 05:00:37;;;;;;;3.70;1.88;;;8.60;99.90;;;;;;10268101;28;20693;-48
2021/05/13 05:05:58;;;;;;;4.20;1.35;;;8.80;99.90;;;;;;10266840;28;20696;-48
2021/05/13 05:11:20;;;;;;;5.75;1.95;;;9.00;99.90;;;;;;10252622;28;20046;-48
2021/05/13 05:16:41;;;;;;;4.53;1.98;;;9.20;99.90;;;;;;10267373;28;20577;-48
2021/05/13 05:22:03;;;;;;;3.83;1.67;;;9.40;99.90;;;;;;10271807;28;20110;-47
2021/05/13 05:27:25;;;;;;;4.75;1.98;;;9.60;99.90;;;;;;10265298;28;20042;-48
2021/05/13 05:32:46;;;;;;;3.28;2.00;;;9.70;99.90;;;;;;10270006;28;20038;-48
2021/05/13 05:38:08;;;;;;;4.15;1.73;;;10.00;99.90;;;;;;10269033;28;20074;-48
2021/05/13 05:43:29;;;;;;;5.22;2.13;;;10.20;99.90;;;;;;10268351;28;20050;-48
2021/05/13 05:48:50;;;;;;;8.70;2.25;;;10.30;99.90;;;;;;10273225;28;20039;-48
2021/05/13 05:54:11;;;;;;;2.92;1.65;;;10.60;99.90;;;;;;10268052;28;20051;-48
2021/05/13 05:59:32;;;;;;;6.75;1.75;;;10.70;99.90;;;;;;10270619;28;20473;-48
2021/05/13 06:04:53;;;;;;;8.50;2.65;;;10.90;99.90;;;;;;10276128;28;20061;-48
2021/05/13 06:10:15;;;;;;;4.55;1.80;;;11.10;99.90;;;;;;10272315;28;20137;-48
2021/05/13 06:15:37;;;;;;;7.07;2.10;;;11.10;99.90;;;;;;10248296;28;20517;-48
2021/05/13 06:20:58;;;;;;;4.70;1.90;;;11.20;99.90;;;;;;10278339;28;20046;-48
2021/05/13 06:26:24;;;;;;;3.17;1.88;;;11.30;99.90;;;;;;10261691;28;20118;-48
2021/05/13 06:31:45;;;;;;;4.72;2.33;;;11.40;99.90;;;;;;10271976;28;20050;-48
2021/05/13 06:37:06;;;;;;;9.32;2.40;;;11.60;99.90;;;;;;10268360;28;20066;-48
2021/05/13 06:42:27;;;;;;;5.45;2.17;;;11.80;99.90;;;;;;10273195;28;20043;-48
2021/05/13 06:47:48;;;;;;;5.10;2.70;;;11.80;99.90;;;;;;10278340;28;20482;-48
2021/05/13 06:53:09;;;;;;;5.32;2.63;;;11.90;99.90;;;;;;10273079;28;20057;-48
2021/05/13 06:58:30;;;;;;;6.47;2.60;;;12.20;99.90;;;;;;10274043;28;20050;-48
2021/05/13 07:03:50;;;;;;;7.55;3.85;;;12.20;99.90;;;;;;10266044;28;20105;-48
2021/05/13 07:09:11;;;;;;;5.72;2.72;;;12.20;99.90;;;;;;10251270;28;20050;-48
2021/05/13 07:14:32;;;;;;;6.70;3.13;;;12.20;99.90;;;;;;10270656;28;20520;-48
2021/05/13 07:19:53;;;;;;;4.70;2.22;;;12.40;99.90;;;;;;10275384;28;20182;-48
2021/05/13 07:25:14;;;;;;;6.10;2.70;;;12.60;99.90;;;;;;10276394;28;20498;-48
2021/05/13 07:30:36;;;;;;;4.03;2.22;;;12.60;99.90;;;;;;10273012;28;20722;-48
2021/05/13 07:35:56;;;;;;;4.70;2.50;;;12.70;99.90;;;;;;10277651;28;20076;-49
2021/05/13 07:41:18;;;;;;;8.80;2.70;;;12.80;99.90;;;;;;10277196;28;20084;-49
2021/05/13 07:46:40;;;;;;;6.57;2.15;;;13.00;99.90;;;;;;10276301;28;20042;-49
2021/05/13 07:52:01;;;;;;;6.18;2.53;;;13.10;99.90;;;;;;10279943;28;20453;-49
2021/05/13 07:57:22;;;;;;;6.07;2.40;;;13.20;99.90;;;;;;10271176;28;20046;-49
2021/05/13 08:02:44;;;;;;;4.90;2.55;;;13.40;99.90;;;;;;10273163;28;20051;-49
2021/05/13 08:08:05;;;;;;;7.82;3.33;;;13.50;99.90;;;;;;10270950;28;20109;-49
2021/05/13 08:13:29;;;;;;;5.20;2.42;;;13.70;99.90;;;;;;10267575;28;20442;-49
2021/05/13 08:18:49;;;;;;;5.43;2.80;;;13.80;99.90;;;;;;10273826;28;20054;-49
2021/05/13 08:24:10;;;;;;;8.68;2.88;;;14.30;99.90;;;;;;10271416;28;20111;-49
2021/05/13 08:29:32;;;;;;;5.95;3.28;;;14.30;99.90;;;;;;10267636;28;20050;-49
2021/05/13 08:34:53;;;;;;;6.10;3.45;;;14.50;99.90;;;;;;10273853;28;20096;-49
2021/05/13 08:40:15;;;;;;;5.15;2.72;;;14.80;99.90;;;;;;10274435;28;20502;-49
2021/05/13 08:45:39;;;;;;;3.90;2.08;;;15.00;99.90;;;;;;10265119;28;20434;-49
2021/05/13 08:51:00;;;;;;;4.90;2.55;;;15.00;99.90;;;;;;10272704;28;20050;-49
2021/05/13 08:56:23;;;;;;;6.15;2.47;;;15.20;99.90;;;;;;10264135;28;20051;-49
2021/05/13 09:02:00;;;;;;;5.93;2.10;;;15.40;99.90;;;;;;10267248;28;20427;-49
2021/05/13 09:07:25;;;;;;;6.82;1.55;;;15.70;99.90;;;;;;10273165;28;20031;-49
2021/05/13 09:12:47;;;;;;;5.47;2.50;;;15.90;99.90;;;;;;10270030;28;20047;-48
2021/05/13 09:18:14;;;;;;;3.47;2.30;;;16.20;99.90;;;;;;10262457;28;20517;-49
2021/05/13 09:23:36;;;;;;;6.07;2.38;;;16.40;99.90;;;;;;10272769;28;20050;-49
2021/05/13 09:29:12;;;;;;;5.85;1.92;;;16.40;99.90;;;;;;10268524;28;20268;-49
2021/05/13 09:34:33;;;;;;;6.57;2.33;;;16.70;99.90;;;;;;10254051;28;20077;-49
2021/05/13 09:39:54;;;;;;;5.50;1.30;;;17.00;99.90;;;;;;10281800;28;20521;-49
2021/05/13 09:45:15;;;;;;;3.72;1.73;;;17.30;99.90;;;;;;10276052;28;20031;-49
2021/05/13 09:50:36;;;;;;;2.78;1.50;;;17.40;99.90;;;;;;10282989;28;20479;-49
2021/05/13 09:55:57;;;;;;;2.88;1.50;;;17.70;99.90;;;;;;10278012;28;20066;-49
2021/05/13 10:01:19;;;;;;;2.90;1.02;;;17.90;99.90;;;;;;10273934;28;20038;-48
2021/05/13 10:06:40;;;;;;;2.42;0.82;;;18.00;99.90;;;;;;10262759;28;20046;-48
2021/05/13 10:12:01;;;;;;;1.83;0.60;;;18.20;99.90;;;;;;10278007;28;20047;-48
2021/05/13 10:17:22;;;;;;;5.45;0.85;;;18.20;99.90;;;;;;10278895;28;20046;-48
2021/05/13 10:22:46;;;;;;;2.28;0.93;;;18.40;99.90;;;;;;10281254;28;20479;-48
2021/05/13 10:28:12;;;;;;;1.85;0.85;;;19.00;99.90;;;;;;10276209;28;20509;-48
2021/05/13 10:33:49;;;;;;;3.15;1.02;;;19.50;99.90;;;;;;10277273;28;20046;-48
2021/05/13 10:39:11;;;;;;;7.95;1.23;;;19.50;99.90;;;;;;10278563;28;20081;-48
2021/05/13 10:44:34;;;;;;;3.53;0.85;;;19.00;99.90;;;;;;10278004;28;20386;-48
2021/05/13 10:49:55;;;;;;;1.80;0.80;;;19.00;99.90;;;;;;10278656;28;20031;-48
2021/05/13 10:55:34;;;;;;;2.53;1.15;;;19.10;99.90;;;;;;10279028;28;20049;-48
2021/05/13 11:01:34;;;;;;;1.60;0.80;;;19.40;99.90;;;;;;10280302;28;20057;-48
2021/05/13 11:06:57;;;;;;;2.17;0.85;;;20.10;99.90;;;;;;10281007;28;20296;-48
2021/05/13 11:12:37;;;;;;;6.60;0.88;;;20.60;99.90;;;;;;10274547;28;20127;-48
2021/05/13 11:18:05;;;;;;;6.03;1.05;;;20.40;99.90;;;;;;10271233;28;20042;-48
2021/05/13 11:23:28;;;;;;;2.20;1.52;;;20.30;99.90;;;;;;10278188;28;20239;-48
2021/05/13 11:28:51;;;;;;;3.55;1.02;;;20.20;99.90;;;;;;10274360;28;20051;-48
2021/05/13 11:34:13;;;;;;;2.05;0.60;;;20.30;99.90;;;;;;10275525;28;20396;-48
2021/05/13 11:39:34;;;;;;;5.97;0.75;;;20.10;99.90;;;;;;10276347;28;20588;-47
2021/05/13 11:44:59;;;;;;;1.35;0.65;;;20.10;99.90;;;;;;10272174;28;20065;-48
2021/05/13 11:50:30;;;;;;;5.22;0.75;;;20.80;99.90;;;;;;10273737;28;20050;-48
2021/05/13 11:55:52;;;;;;;2.53;1.10;;;21.20;99.90;;;;;;10275227;28;20082;-48
2021/05/13 12:01:22;;;;;;;1.23;0.50;;;22.00;99.90;;;;;;10275830;28;20046;-48
2021/05/13 12:06:54;;;;;;;1.77;0.70;;;21.60;99.20;;;;;;10280978;28;20329;-48
2021/05/13 12:12:22;;;;;;;1.33;0.60;;;21.40;99.90;;;;;;10276974;28;20739;-48
2021/05/13 12:17:45;;;;;;;2.03;0.63;;;21.70;98.80;;;;;;10276345;28;21475;-48
2021/05/13 12:23:09;;;;;;;1.73;0.52;;;20.90;99.90;;;;;;10273567;28;20085;-48
2021/05/13 12:28:30;;;;;;;1.65;0.93;;;20.50;99.90;;;;;;10275938;28;20600;-48
2021/05/13 12:33:51;;;;;;;2.28;0.70;;;21.40;99.90;;;;;;10274145;28;20822;-48
2021/05/13 12:39:12;;;;;;;2.45;0.73;;;22.10;98.70;;;;;;10273446;28;20086;-48
2021/05/13 12:44:33;;;;;;;3.35;1.30;;;22.20;99.90;;;;;;10271512;28;20050;-48
2021/05/13 12:50:01;;;;;;;2.00;0.98;;;23.00;98.70;;;;;;10258498;28;20077;-49
2021/05/13 12:55:22;;;;;;;2.35;0.93;;;23.80;94.00;;;;;;10270324;28;20038;-48
2021/05/13 13:00:50;;;;;;;2.92;0.85;;;23.70;95.00;;;;;;10261257;28;20218;-48
2021/05/13 13:06:17;;;;;;;2.60;0.98;;;23.30;94.50;;;;;;10277091;28;20490;-48
2021/05/13 13:11:39;;;;;;;1.35;0.68;;;22.70;95.30;;;;;;10282007;28;20494;-48
2021/05/13 13:17:00;;;;;;;2.15;0.70;;;23.40;98.60;;;;;;10280619;28;20051;-49
2021/05/13 13:22:24;;;;;;;2.67;1.10;;;24.30;97.40;;;;;;10282159;28;20506;-48
2021/05/13 13:27:45;;;;;;;6.57;0.90;;;23.80;95.80;;;;;;10281864;28;20058;-48
2021/05/13 13:33:17;;;;;;;2.40;0.90;;;23.30;96.80;;;;;;10277262;28;20537;-48
2021/05/13 13:38:39;;;;;;;3.47;0.98;;;23.60;96.00;;;;;;10282470;28;20050;-48
2021/05/13 13:44:00;;;;;;;1.50;1.00;;;23.20;98.30;;;;;;10280890;28;20101;-48
2021/05/13 13:49:21;;;;;;;2.30;1.25;;;22.80;98.50;;;;;;10280000;28;20034;-48
2021/05/13 13:54:42;;;;;;;3.53;0.75;;;21.90;99.20;;;;;;10281511;28;20540;-47
2021/05/13 14:00:04;;;;;;;2.35;0.75;;;21.20;99.90;;;;;;10278840;28;20197;-47
2021/05/13 14:05:26;;;;;;;1.80;0.95;;;20.30;99.90;;;;;;10281797;28;20078;-47
2021/05/13 14:10:49;;;;;;;1.80;0.82;;;19.90;99.90;;;;;;10275352;28;20081;-47
2021/05/13 14:16:15;;;;;;;3.90;0.90;;;19.70;99.90;;;;;;10278112;28;20035;-48
2021/05/13 14:21:36;;;;;;;3.22;1.13;;;19.90;99.90;;;;;;10265547;28;20069;-47
2021/05/13 14:26:57;;;;;;;6.80;0.98;;;19.70;99.90;;;;;;10277205;28;20087;-47
2021/05/13 14:32:18;;;;;;;1.27;0.70;;;19.70;99.90;;;;;;10278515;28;20478;-47
2021/05/13 14:37:39;;;;;;;1.08;0.43;;;20.00;99.90;;;;;;10279421;28;20533;-47
2021/05/13 14:43:00;;;;;;;1.40;0.57;;;20.00;99.90;;;;;;10280922;28;20153;-47
2021/05/13 14:48:24;;;;;;;1.40;0.63;;;20.00;99.90;;;;;;10276816;28;20126;-47
2021/05/13 14:53:45;;;;;;;3.58;1.10;;;19.90;99.90;;;;;;10280344;28;20050;-47
2021/05/13 14:59:10;;;;;;;3.17;0.50;;;19.80;99.90;;;;;;10279150;28;20073;-47
2021/05/13 15:04:31;;;;;;;1.23;0.50;;;19.90;99.90;;;;;;10279126;28;20046;-47
2021/05/13 15:09:52;;;;;;;1.88;0.63;;;19.70;99.90;;;;;;10248129;28;20046;-47
2021/05/13 15:15:16;;;;;;;1.35;0.50;;;19.40;99.90;;;;;;10272228;28;20057;-47
2021/05/13 15:20:37;;;;;;;0.95;0.40;;;19.10;99.90;;;;;;10276725;28;20053;-48
2021/05/13 15:25:58;;;;;;;2.42;0.95;;;18.70;99.90;;;;;;10276077;28;20085;-47
2021/05/13 15:31:19;;;;;;;11.57;1.20;;;18.60;99.90;;;;;;10265339;28;20290;-47
2021/05/13 15:36:43;;;;;;;6.97;1.02;;;18.50;99.90;;;;;;10281018;28;20614;-47
2021/05/13 15:42:04;;;;;;;1.85;0.90;;;18.50;99.90;;;;;;10267742;28;20135;-47
2021/05/13 15:47:25;;;;;;;2.22;0.70;;;18.30;99.90;;;;;;10265266;28;20745;-47
2021/05/13 15:52:46;;;;;;;3.28;0.90;;;18.30;99.90;;;;;;10267122;28;20054;-47
2021/05/13 15:58:08;;;;;;;4.07;0.60;;;18.10;99.90;;;;;;10269250;28;20051;-47
2021/05/13 16:03:28;;;;;;;2.38;1.00;;;17.90;99.90;;;;;;10265728;28;20382;-47
2021/05/13 16:08:49;;;;;;;2.28;0.77;;;17.90;99.90;;;;;;10269029;28;20054;-47
2021/05/13 16:14:10;;;;;;;2.25;0.80;;;17.70;99.90;;;;;;10271445;28;20088;-47
2021/05/13 16:19:31;;;;;;;1.98;1.00;;;17.70;99.90;;;;;;10267277;28;20404;-46
2021/05/13 16:24:52;;;;;;;4.00;0.90;;;17.70;99.90;;;;;;10266510;28;20052;-47
2021/05/13 16:30:14;;;;;;;3.17;1.15;;;17.60;99.90;;;;;;10261868;28;20065;-47
2021/05/13 16:35:35;;;;;;;2.53;0.82;;;17.70;99.90;;;;;;10263912;28;20073;-47
2021/05/13 16:40:56;;;;;;;3.00;0.90;;;17.50;99.90;;;;;;10260243;28;20056;-47
2021/05/13 16:46:17;;;;;;;4.38;1.25;;;17.50;99.90;;;;;;10249034;28;20819;-46
2021/05/13 16:51:38;;;;;;;4.88;0.88;;;17.40;99.90;;;;;;10267790;28;20084;-47
2021/05/13 16:56:59;;;;;;;2.08;1.08;;;17.30;99.90;;;;;;10263353;28;20071;-46
2021/05/13 17:02:25;;;;;;;5.72;1.40;;;16.90;99.90;;;;;;10263779;28;20049;-47
2021/05/13 17:07:46;;;;;;;3.25;1.50;;;16.40;99.90;;;;;;10270050;28;22611;-46
2021/05/13 17:13:07;;;;;;;2.70;1.30;;;15.50;99.90;;;;;;10268498;28;20069;-46
2021/05/13 17:18:29;;;;;;;2.88;1.20;;;14.70;99.90;;;;;;10260460;28;20043;-46
2021/05/13 17:23:49;;;;;;;4.25;1.17;;;14.20;99.90;;;;;;10276730;28;20038;-46
2021/05/13 17:29:11;;;;;;;2.78;1.52;;;14.10;99.90;;;;;;10267982;28;20080;-46
2021/05/13 17:34:32;;;;;;;5.22;1.75;;;14.00;99.90;;;;;;10275052;28;20043;-46
2021/05/13 17:39:53;;;;;;;3.65;1.58;;;13.70;99.90;;;;;;10274695;28;20510;-46
2021/05/13 17:45:14;;;;;;;6.03;1.48;;;13.30;99.90;;;;;;10273324;28;20039;-46
2021/05/13 17:50:36;;;;;;;4.10;1.80;;;13.40;99.90;;;;;;10269192;28;20395;-47
2021/05/13 17:55:57;;;;;;;3.92;1.50;;;13.40;99.90;;;;;;10278203;28;20397;-46
2021/05/13 18:01:18;;;;;;;4.32;1.35;;;13.40;99.90;;;;;;10270110;28;20070;-49
2021/05/13 18:06:39;;;;;;;3.38;1.73;;;13.50;99.90;;;;;;10273162;28;20027;-48
2021/05/13 18:12:00;;;;;;;4.45;1.60;;;13.30;99.90;;;;;;10275694;28;20047;-48
2021/05/13 18:17:21;;;;;;;2.17;1.27;;;13.20;99.90;;;;;;10271001;28;20378;-48
2021/05/13 18:22:46;;;;;;;3.22;1.65;;;13.10;99.90;;;;;;10272186;28;20402;-48
2021/05/13 18:28:07;;;;;;;3.45;1.50;;;13.10;99.90;;;;;;10272795;28;20157;-48
2021/05/13 18:33:29;;;;;;;4.25;1.77;;;13.00;99.90;;;;;;10271946;28;20056;-48
2021/05/13 18:38:50;;;;;;;4.30;1.20;;;12.80;99.90;;;;;;10274251;28;20042;-48
2021/05/13 18:44:11;;;;;;;2.17;0.98;;;12.70;99.90;;;;;;10268607;28;20238;-48
2021/05/13 18:49:32;;;;;;;1.70;0.90;;;12.70;99.90;;;;;;10266874;28;20054;-48
2021/05/13 18:54:53;;;;;;;4.43;0.88;;;12.60;99.90;;;;;;10273097;28;20043;-49
2021/05/13 19:00:17;;;;;;;3.85;1.20;;;12.70;99.90;;;;;;10272255;28;20142;-49
2021/05/13 19:05:39;;;;;;;1.83;0.77;;;12.60;99.90;;;;;;10275074;28;20109;-49
2021/05/13 19:11:00;;;;;;;1.40;0.85;;;12.40;99.90;;;;;;10274608;28;20054;-49
2021/05/13 19:16:21;;;;;;;1.98;0.80;;;12.40;99.90;;;;;;10269573;28;20096;-49
2021/05/13 19:21:42;;;;;;;2.55;1.00;;;12.40;99.90;;;;;;10273370;28;20081;-49
2021/05/13 19:27:04;;;;;;;2.28;1.02;;;12.50;99.90;;;;;;10267408;28;20041;-49
2021/05/13 19:37:49;;;;;;;6.40;1.40;;;12.50;99.90;;;;;;10263766;28;20053;-49
2021/05/13 19:43:10;;;;;;;3.40;1.65;;;12.60;99.90;;;;;;10269592;28;20580;-49
2021/05/13 19:48:31;;;;;;;4.13;2.00;;;12.70;99.90;;;;;;10263376;28;20042;-49
2021/05/13 19:53:52;;;;;;;3.63;1.20;;;12.70;99.90;;;;;;10275031;28;20051;-49
2021/05/13 19:59:13;;;;;;;1.80;1.30;;;12.70;99.90;;;;;;10270396;28;20053;-49
2021/05/13 20:04:48;;;;;;;2.63;1.20;;;12.50;99.90;;;;;;10266600;28;20050;-49
2021/05/13 20:10:15;;;;;;;2.83;1.02;;;12.50;99.90;;;;;;10267557;28;20054;-49
2021/05/13 20:15:36;;;;;;;2.92;1.45;;;12.40;99.90;;;;;;10268894;28;20077;-49
2021/05/13 20:20:57;;;;;;;2.17;1.02;;;12.20;99.90;;;;;;10271646;28;20049;-49
2021/05/13 20:31:58;;;;;;;1.92;1.20;;;12.10;99.90;;;;;;10269194;28;20054;-49
2021/05/13 20:37:19;;;;;;;3.72;1.75;;;12.10;99.90;;;;;;10257328;28;20050;-49
2021/05/13 20:42:44;;;;;;;3.08;1.35;;;12.20;99.90;;;;;;10267340;28;20434;-49
2021/05/13 20:48:24;;;;;;;4.07;1.83;;;12.10;99.90;;;;;;10269651;28;20070;-49
2021/05/13 20:59:27;;;;;;;3.60;1.40;;;12.10;99.90;;;;;;10270142;28;19937;-49
2021/05/13 21:04:59;;;;;;;2.30;1.10;;;12.00;99.90;;;;;;10268695;28;20042;-49
2021/05/13 21:21:22;;;;;;;3.17;1.70;;;12.00;99.90;;;;;;10259259;28;20423;-49
2021/05/13 21:26:50;;;;;;;4.20;2.15;;;11.90;99.90;;;;;;10271037;28;20054;-49
2021/05/13 21:32:11;;;;;;;5.17;1.53;;;12.00;99.90;;;;;;10278579;28;20073;-49
2021/05/13 21:37:33;;;;;;;3.28;1.63;;;12.10;99.90;;;;;;10278492;28;20112;-49
2021/05/13 21:42:54;;;;;;;3.45;1.92;;;12.00;99.90;;;;;;10279846;28;20141;-49
2021/05/13 21:48:27;;;;;;;3.50;2.25;;;12.00;99.90;;;;;;10271756;28;20133;-48
2021/05/13 21:53:48;;;;;;;5.63;1.70;;;12.00;99.90;;;;;;10278002;28;20442;-48
2021/05/13 21:59:11;;;;;;;5.38;1.80;;;12.00;99.90;;;;;;10260549;28;20058;-49
2021/05/13 22:04:36;;;;;;;5.38;2.10;;;12.00;99.90;;;;;;10269363;28;20038;-49
2021/05/13 22:09:57;;;;;;;4.95;2.50;;;12.00;99.90;;;;;;10272431;28;20077;-49
2021/05/13 22:15:18;;;;;;;10.02;2.70;;;11.90;99.90;;;;;;10271069;28;20089;-49
2021/05/13 22:20:40;;;;;;;6.30;2.88;;;11.90;99.90;;;;;;10269040;28;20051;-48
2021/05/13 22:26:00;;;;;;;5.10;2.17;;;11.70;99.90;;;;;;10269021;28;20047;-48
2021/05/13 22:31:21;;;;;;;6.93;3.08;;;11.80;99.90;;;;;;10267745;28;20237;-48
2021/05/13 22:36:42;;;;;;;9.77;3.83;;;11.80;99.90;;;;;;10267889;28;20126;-49
2021/05/13 22:42:05;;;;;;;7.60;3.45;;;11.60;99.90;;;;;;10272701;28;20045;-48
2021/05/13 22:47:26;;;;;;;8.13;2.85;;;11.60;99.90;;;;;;10265507;28;20406;-48
2021/05/13 22:52:51;;;;;;;7.18;3.15;;;11.60;99.90;;;;;;10271029;28;20542;-48
2021/05/13 22:58:13;;;;;;;6.45;2.08;;;11.60;99.90;;;;;;10269499;28;20850;-48
2021/05/13 23:03:34;;;;;;;7.13;3.28;;;11.50;99.90;;;;;;10265886;28;20078;-48
2021/05/13 23:08:57;;;;;;;7.55;2.08;;;11.50;99.90;;;;;;10269176;28;20177;-48
2021/05/13 23:19:39;;;;;;;7.13;3.13;;;11.50;99.90;;;;;;10265667;28;20048;-49
2021/05/13 23:25:00;;;;;;;4.95;2.55;;;11.50;99.90;;;;;;10268133;28;20051;-48
2021/05/13 23:30:21;;;;;;;6.40;2.05;;;11.50;99.90;;;;;;10268512;28;20043;-48
2021/05/13 23:35:42;;;;;;;9.02;3.15;;;11.40;99.90;;;;;;10272018;28;20133;-48
2021/05/13 23:41:04;;;;;;;11.23;3.13;;;11.40;99.90;;;;;;10267886;28;20047;-48
2021/05/13 23:46:25;;;;;;;6.55;2.42;;;11.50;99.90;;;;;;10263037;28;20055;-49
2021/05/13 23:51:46;;;;;;;6.40;2.75;;;11.50;99.90;;;;;;10266620;28;20051;-49
2021/05/13 23:57:07;;;;;;;6.75;2.72;;;11.40;99.90;;;;;;10268167;28;20419;-49
